Time;durP1;ratioP1;P1;durP2;ratioP2;P2;SDS_P1;SDS_P2;PMS_P1;PMS_P2;Temp;Humidity;BMP_temperature;BMP_pressure;BME280_temperature;BME280_humidity;BME280_pressure;Samples;Min_cycle;Max_cycle;Signal;HPM_P1;HPM_P2
2023/01/15 14:16:29;;;;;;;1.17;1.10;;;;;;;19.81;48.04;99182.47;1905591;72;28509;-49
2023/01/15 14:19:29;;;;;;;1.40;1.30;;;;;;;20.16;47.47;99185.48;1880454;74;28219;-46
2023/01/15 14:22:30;;;;;;;1.35;1.20;;;;;;;20.98;46.07;99179.45;1890481;75;28261;-48
2023/01/15 14:25:40;;;;;;;1.10;1.10;;;;;;;21.62;44.73;99172.70;1874302;74;28281;-48
2023/01/15 14:28:43;;;;;;;1.20;1.10;;;;;;;22.14;43.63;99174.23;1886103;74;28201;-50
2023/01/15 14:31:44;;;;;;;1.00;1.00;;;;;;;22.55;42.74;99179.50;1889952;75;28684;-47
2023/01/15 14:34:35;;;;;;;1.10;1.00;;;;;;;22.84;41.97;99173.56;1900277;74;28048;-51
2023/01/15 14:37:49;;;;;;;1.00;0.90;;;;;;;23.10;41.34;99177.93;1869758;75;28244;-48
2023/01/15 14:40:40;;;;;;;1.40;1.05;;;;;;;23.35;40.87;99182.53;1868898;75;28332;-50
2023/01/15 14:43:40;;;;;;;0.95;0.90;;;;;;;23.50;40.40;99180.57;1903493;74;28059;-50
2023/01/15 14:46:40;;;;;;;1.02;0.90;;;;;;;23.57;40.18;99183.18;1909074;74;28120;-50
2023/01/15 14:49:33;;;;;;;0.80;0.80;;;;;;;23.74;39.82;99183.45;1882943;73;28276;-50
2023/01/15 14:52:25;;;;;;;0.90;0.90;;;;;;;23.84;39.58;99191.86;1891804;74;28135;-51
2023/01/15 14:55:15;;;;;;;0.75;0.75;;;;;;;23.93;39.36;99181.29;1878955;74;28243;-51
2023/01/15 14:58:07;;;;;;;0.80;0.80;;;;;;;24.00;39.14;99191.02;1901886;73;28248;-51
2023/01/15 15:01:02;;;;;;;0.93;0.93;;;;;;;24.07;38.96;99185.38;1893510;73;31329;-47
2023/01/15 15:04:19;;;;;;;0.80;0.80;;;;;;;24.10;38.89;99189.00;1876159;73;28231;-47
2023/01/15 15:07:25;;;;;;;0.93;0.93;;;;;;;24.17;38.64;99186.91;1873973;75;28691;-50
2023/01/15 15:10:23;;;;;;;0.80;0.80;;;;;;;24.15;38.64;99185.50;1900292;75;28181;-49
2023/01/15 15:13:17;;;;;;;0.60;0.60;;;;;;;24.24;38.48;99182.08;1892673;74;28241;-46
2023/01/15 15:16:28;;;;;;;1.02;0.85;;;;;;;24.29;38.31;99186.80;1895710;74;28110;-48
2023/01/15 15:19:22;;;;;;;1.05;0.80;;;;;;;24.33;38.23;99191.53;1868297;75;28194;-46
2023/01/15 15:22:13;;;;;;;0.78;0.78;;;;;;;24.32;38.21;99187.68;1844287;76;28336;-47
2023/01/15 15:25:05;;;;;;;0.68;0.68;;;;;;;24.35;38.15;99197.59;1849307;76;28181;-48
2023/01/15 15:28:03;;;;;;;0.70;0.70;;;;;;;24.32;38.13;99190.42;1844881;77;28172;-48
2023/01/15 15:30:53;;;;;;;0.70;0.70;;;;;;;24.35;38.12;99195.39;1863603;76;28221;-48
2023/01/15 15:33:42;;;;;;;0.80;0.80;;;;;;;24.41;37.92;99199.31;1865148;75;28192;-46
2023/01/15 15:36:34;;;;;;;0.68;0.68;;;;;;;24.47;37.75;99205.19;1884452;75;28162;-49
2023/01/15 15:39:43;;;;;;;0.90;0.90;;;;;;;24.45;38.09;99203.24;1846485;76;28258;-45
2023/01/15 15:49:01;;;;;;;0.65;0.65;;;;;;;24.55;37.72;99195.69;1771539;79;28379;-46
2023/01/15 15:51:52;;;;;;;2.90;0.60;;;;;;;24.46;37.68;99188.95;1784431;78;28161;-44
2023/01/15 15:54:40;;;;;;;0.60;0.60;;;;;;;24.47;37.67;99183.22;1821360;78;28299;-44
2023/01/15 15:57:31;;;;;;;0.60;0.60;;;;;;;24.47;37.72;99178.27;1853670;75;28326;-43
2023/01/15 16:00:22;;;;;;;0.70;0.70;;;;;;;24.55;37.57;99182.77;1839202;77;28172;-46
2023/01/15 16:03:23;;;;;;;0.75;0.75;;;;;;;24.44;37.66;99182.88;1840565;77;28569;-47
2023/01/15 16:06:26;;;;;;;0.70;0.70;;;;;;;24.49;37.71;99173.34;1851395;76;28185;-45
2023/01/15 16:09:16;;;;;;;0.50;0.50;;;;;;;24.42;37.70;99165.30;1820116;78;27774;-44
2023/01/15 16:12:06;;;;;;;0.60;0.60;;;;;;;24.42;37.77;99168.05;1814989;78;28326;-45
2023/01/15 16:14:57;;;;;;;0.50;0.50;;;;;;;24.53;37.74;99175.32;1806563;78;28348;-46
2023/01/15 16:17:46;;;;;;;0.47;0.47;;;;;;;24.62;37.71;99164.74;1830134;77;28321;-45
2023/01/15 16:20:35;;;;;;;0.60;0.60;;;;;;;24.59;37.57;99161.96;1856552;75;28225;-46
2023/01/15 16:23:26;;;;;;;0.53;0.53;;;;;;;24.62;37.63;99171.04;1869093;75;28520;-48
2023/01/15 16:26:21;;;;;;;1.10;0.42;;;;;;;24.68;37.48;99167.30;1835571;76;28221;-46
2023/01/15 16:29:18;;;;;;;0.60;0.60;;;;;;;24.70;37.37;99168.39;1857742;76;28356;-47
2023/01/15 16:32:15;;;;;;;0.55;0.55;;;;;;;24.69;37.39;99159.89;1852303;77;28208;-45
2023/01/15 16:35:10;;;;;;;0.60;0.60;;;;;;;24.70;37.40;99152.75;1836763;76;28396;-46
2023/01/15 16:38:01;;;;;;;0.70;0.70;;;;;;;24.67;37.40;99164.24;1855015;77;28329;-45
2023/01/15 16:40:50;;;;;;;0.50;0.50;;;;;;;24.69;37.42;99170.31;1870570;76;28170;-46
2023/01/15 16:43:56;;;;;;;0.47;0.47;;;;;;;24.70;37.37;99178.84;1807554;78;28259;-45
2023/01/15 16:46:57;;;;;;;0.55;0.55;;;;;;;24.73;37.28;99167.36;1783454;78;28273;-45
2023/01/15 16:49:46;;;;;;;0.70;0.70;;;;;;;24.72;37.23;99172.55;1829555;77;28331;-46
2023/01/15 16:52:49;;;;;;;0.50;0.50;;;;;;;24.69;37.27;99170.87;1787894;79;28297;-45
2023/01/15 16:55:41;;;;;;;0.50;0.50;;;;;;;24.73;37.22;99164.61;1784281;78;28499;-45
2023/01/15 16:58:38;;;;;;;0.70;0.70;;;;;;;24.70;37.26;99168.39;1808636;78;28242;-46
2023/01/15 17:01:45;;;;;;;0.68;0.68;;;;;;;24.69;37.17;99167.56;1821074;76;28267;-46
2023/01/15 17:04:40;;;;;;;0.40;0.40;;;;;;;24.68;37.29;99159.05;1819595;78;28278;-45
2023/01/15 17:07:40;;;;;;;0.47;0.47;;;;;;;24.67;37.30;99161.50;1818713;77;28350;-45
2023/01/15 17:10:30;;;;;;;0.40;0.40;;;;;;;24.66;37.20;99159.85;1851064;76;28143;-45
2023/01/15 17:13:19;;;;;;;0.33;0.33;;;;;;;24.65;37.28;99147.20;1839431;77;28118;-45
2023/01/15 17:16:17;;;;;;;0.60;0.60;;;;;;;24.67;37.22;99154.63;1875854;75;28304;-45
2023/01/15 17:19:07;;;;;;;0.53;0.50;;;;;;;24.69;37.26;99155.77;1860917;76;28175;-45
2023/01/15 17:21:55;;;;;;;0.40;0.40;;;;;;;24.69;37.16;99157.95;1869481;75;28301;-46
2023/01/15 17:24:52;;;;;;;0.60;0.60;;;;;;;24.73;37.21;99155.00;1854014;76;28205;-46
2023/01/15 17:27:40;;;;;;;0.50;0.50;;;;;;;24.76;37.06;99152.81;1859285;76;28173;-45
2023/01/15 17:30:30;;;;;;;1.10;0.57;;;;;;;24.77;37.11;99153.13;1870194;75;28254;-45
2023/01/15 17:33:20;;;;;;;0.50;0.50;;;;;;;24.74;36.89;99156.64;1865489;74;28154;-45
2023/01/15 17:36:09;;;;;;;0.50;0.50;;;;;;;24.71;36.85;99155.77;1873734;76;28116;-47
2023/01/15 17:38:58;;;;;;;0.50;0.50;;;;;;;24.72;36.75;99153.86;1840729;77;28178;-45
2023/01/15 17:41:47;;;;;;;0.42;0.42;;;;;;;24.68;36.78;99153.55;1863507;74;28095;-45
2023/01/15 17:44:41;;;;;;;0.60;0.53;;;;;;;24.69;36.79;99147.53;1854150;76;28243;-46
2023/01/15 17:47:29;;;;;;;0.60;0.60;;;;;;;24.67;36.95;99144.18;1849200;76;28350;-45
2023/01/15 17:50:25;;;;;;;0.50;0.50;;;;;;;24.70;36.82;99140.39;1863935;75;28199;-47
2023/01/15 17:53:15;;;;;;;0.37;0.37;;;;;;;24.68;36.90;99144.48;1866945;75;28251;-45
2023/01/15 18:05:25;;;;;;;0.50;0.50;;;;;;;24.65;36.89;99147.20;1857378;75;28181;-48
2023/01/15 18:08:14;;;;;;;0.60;0.60;;;;;;;24.64;36.96;99144.72;1859239;76;32128;-46
2023/01/15 18:11:03;;;;;;;0.53;0.53;;;;;;;24.61;36.84;99148.80;1863313;75;28469;-47
2023/01/15 18:13:51;;;;;;;0.65;0.65;;;;;;;24.63;36.79;99139.76;1867744;75;28243;-48
2023/01/15 18:16:40;;;;;;;0.57;0.57;;;;;;;24.68;36.76;99137.61;1840568;76;28172;-47
2023/01/15 18:19:28;;;;;;;0.60;0.60;;;;;;;24.70;36.69;99139.55;1864480;76;28084;-48
2023/01/15 18:22:23;;;;;;;0.50;0.50;;;;;;;24.67;36.66;99136.78;1884224;75;28241;-47
2023/01/15 18:25:11;;;;;;;0.50;0.50;;;;;;;24.68;36.68;99132.13;1866536;76;28257;-46
2023/01/15 18:28:00;;;;;;;0.60;0.60;;;;;;;24.65;36.67;99125.76;1882726;75;28260;-51
2023/01/15 18:30:49;;;;;;;0.57;0.57;;;;;;;24.68;36.68;99108.77;1878366;76;28176;-48
2023/01/15 18:33:38;;;;;;;0.55;0.55;;;;;;;24.71;36.63;99110.45;1878423;74;28605;-49
2023/01/15 18:36:27;;;;;;;0.53;0.53;;;;;;;24.61;36.58;99085.64;1874113;76;28238;-49
2023/01/15 18:39:15;;;;;;;0.50;0.50;;;;;;;24.66;36.68;99099.43;1858351;75;28232;-49
2023/01/15 18:48:07;;;;;;;0.50;0.50;;;;;;;24.65;36.61;99096.38;1873535;75;28138;-52
2023/01/15 18:50:55;;;;;;;0.70;0.70;;;;;;;24.62;36.68;99094.14;1834080;77;34306;-48
2023/01/15 18:53:43;;;;;;;0.55;0.55;;;;;;;24.64;36.75;99101.58;1877725;76;28297;-48
2023/01/15 18:56:38;;;;;;;0.50;0.50;;;;;;;24.64;36.75;99100.20;1814636;77;28322;-47
2023/01/15 18:59:27;;;;;;;0.50;0.50;;;;;;;24.64;36.74;99097.45;1881046;74;28080;-48
2023/01/15 19:02:17;;;;;;;0.50;0.50;;;;;;;24.64;36.78;99093.34;1873759;76;28172;-49
2023/01/15 19:05:06;;;;;;;0.75;0.70;;;;;;;24.64;36.79;99096.66;1829727;76;27876;-47
2023/01/15 19:07:55;;;;;;;0.47;0.47;;;;;;;24.66;36.75;99090.35;1880308;75;28194;-47
2023/01/15 19:10:43;;;;;;;0.60;0.60;;;;;;;24.67;36.75;99091.45;1883050;75;28178;-49
2023/01/15 19:13:31;;;;;;;0.70;0.70;;;;;;;24.70;36.61;99090.95;1847882;76;28194;-47
2023/01/15 19:19:26;;;;;;;0.60;0.60;;;;;;;24.70;36.66;99093.70;1865204;75;28205;-50
2023/01/15 19:25:22;;;;;;;0.53;0.53;;;;;;;24.71;36.56;99085.72;1863797;76;28253;-48
2023/01/15 19:28:14;;;;;;;0.70;0.70;;;;;;;24.67;36.64;99079.09;1848727;77;28255;-47
2023/01/15 19:34:16;;;;;;;0.72;0.72;;;;;;;24.65;36.69;99073.03;1846166;77;30411;-48
2023/01/15 19:37:03;;;;;;;0.68;0.68;;;;;;;24.64;36.63;99071.36;1861659;76;28049;-49
2023/01/15 19:39:52;;;;;;;0.60;0.60;;;;;;;24.61;36.79;99067.78;1859418;74;32017;-49
2023/01/15 19:55:09;;;;;;;0.53;0.53;;;;;;;24.63;36.72;99062.02;1874479;75;28103;-49
2023/01/15 19:58:02;;;;;;;0.70;0.70;;;;;;;24.59;36.70;99047.99;1857900;76;28245;-49
2023/01/15 20:00:51;;;;;;;0.70;0.70;;;;;;;24.62;36.72;99049.39;1857071;76;28190;-51
2023/01/15 20:03:40;;;;;;;0.60;0.60;;;;;;;24.64;36.68;99048.02;1867705;76;28267;-49
2023/01/15 20:06:28;;;;;;;0.60;0.60;;;;;;;24.64;36.68;99045.27;1846350;76;28285;-48
2023/01/15 20:09:17;;;;;;;0.70;0.70;;;;;;;24.68;36.59;99036.83;1865768;76;28245;-48
2023/01/15 20:15:11;;;;;;;0.75;0.75;;;;;;;24.68;36.53;99031.33;1856242;74;28192;-52
2023/01/15 20:18:08;;;;;;;0.78;0.78;;;;;;;24.65;36.62;99018.65;1864764;76;28231;-47
2023/01/15 20:20:56;;;;;;;0.80;0.80;;;;;;;24.64;36.64;99008.20;1861285;75;28207;-48
2023/01/15 20:23:45;;;;;;;0.70;0.70;;;;;;;24.65;36.58;99001.63;1871174;74;28106;-47
2023/01/15 20:26:33;;;;;;;0.80;0.80;;;;;;;24.68;36.60;98994.25;1859396;75;28236;-49
2023/01/15 20:29:24;;;;;;;0.60;0.60;;;;;;;24.69;36.56;98986.85;1854833;77;28183;-50
2023/01/15 20:32:12;;;;;;;0.70;0.70;;;;;;;24.67;36.60;98986.25;1855498;76;28126;-47
2023/01/15 20:35:00;;;;;;;0.80;0.80;;;;;;;24.65;36.53;98987.90;1843450;77;28363;-48
2023/01/15 20:37:50;;;;;;;0.80;0.80;;;;;;;24.64;36.59;98986.80;1868209;76;28257;-47
2023/01/15 20:40:38;;;;;;;0.70;0.70;;;;;;;24.68;36.53;98981.89;1855136;76;28203;-50
2023/01/15 20:46:33;;;;;;;0.80;0.80;;;;;;;24.69;36.52;98997.27;1851643;77;28274;-48
2023/01/15 20:49:26;;;;;;;0.70;0.70;;;;;;;24.62;36.57;98987.61;1881490;75;28060;-48
2023/01/15 20:52:14;;;;;;;0.70;0.70;;;;;;;24.63;36.56;98982.38;1856097;75;28164;-49
2023/01/15 20:55:04;;;;;;;0.80;0.80;;;;;;;24.63;36.54;98982.38;1837174;76;28296;-47
2023/01/15 20:57:53;;;;;;;0.90;0.90;;;;;;;24.64;36.55;98979.36;1854742;76;28273;-47
2023/01/15 21:00:41;;;;;;;1.00;1.00;;;;;;;24.62;36.60;98964.27;1870152;75;28282;-50
2023/01/15 21:03:29;;;;;;;0.88;0.88;;;;;;;24.66;36.56;98959.36;1869231;76;28263;-47
2023/01/15 21:06:18;;;;;;;0.80;0.80;;;;;;;24.68;36.53;98957.72;1854266;75;28161;-51
2023/01/15 21:09:06;;;;;;;0.80;0.80;;;;;;;24.70;36.43;98955.53;1867854;76;28206;-46
2023/01/15 21:11:54;;;;;;;0.80;0.80;;;;;;;24.68;36.43;98953.05;1856425;76;28354;-46
2023/01/15 21:14:43;;;;;;;0.75;0.75;;;;;;;24.68;36.45;98948.09;1854678;74;28208;-49
2023/01/15 21:17:31;;;;;;;0.70;0.70;;;;;;;24.67;36.44;98950.55;1869101;76;28342;-46
2023/01/15 21:20:19;;;;;;;0.85;0.85;;;;;;;24.66;36.51;98947.00;1838734;74;28314;-47
2023/01/15 21:23:08;;;;;;;0.83;0.83;;;;;;;24.68;36.46;98944.81;1850254;76;28321;-50
2023/01/15 21:26:01;;;;;;;0.78;0.78;;;;;;;24.64;36.46;98931.30;1857878;76;28215;-50
2023/01/15 21:28:54;;;;;;;0.90;0.90;;;;;;;24.64;36.49;98929.92;1858929;76;28209;-48
2023/01/15 21:31:45;;;;;;;1.12;1.00;;;;;;;24.60;36.50;98928.80;1846531;76;28189;-49
2023/01/15 21:34:33;;;;;;;0.90;0.90;;;;;;;24.64;36.55;98925.00;1852632;77;28584;-48
2023/01/15 21:37:22;;;;;;;0.90;0.90;;;;;;;24.61;36.51;98919.48;1850249;76;28231;-49
2023/01/15 21:40:11;;;;;;;0.80;0.80;;;;;;;24.63;36.49;98920.05;1858255;76;28312;-50
2023/01/15 21:46:06;;;;;;;1.00;1.00;;;;;;;24.64;36.42;98905.21;1869475;75;38462;-52
2023/01/15 21:48:56;;;;;;;0.80;0.80;;;;;;;24.61;36.50;98902.17;1850206;76;28362;-52
2023/01/15 21:51:45;;;;;;;0.80;0.80;;;;;;;24.61;36.43;98895.31;1843854;76;28146;-48
2023/01/15 21:54:33;;;;;;;0.95;0.95;;;;;;;24.59;36.45;98890.63;1867938;75;28282;-47
2023/01/15 21:57:22;;;;;;;1.10;1.00;;;;;;;24.61;36.53;98889.28;1843255;76;28240;-51
2023/01/15 22:00:12;;;;;;;0.93;0.93;;;;;;;24.58;36.52;98891.16;1865227;76;28243;-52
2023/01/15 22:03:00;;;;;;;0.90;0.90;;;;;;;24.63;36.49;98882.97;1866656;75;28060;-48
2023/01/15 22:05:49;;;;;;;0.93;0.93;;;;;;;24.66;36.43;98879.71;1846231;75;28171;-50
2023/01/15 22:08:37;;;;;;;0.98;0.98;;;;;;;24.62;36.47;98874.44;1846601;76;28244;-49
2023/01/15 22:11:45;;;;;;;0.90;0.90;;;;;;;24.60;36.54;98868.39;1842696;76;28314;-47
2023/01/15 22:14:34;;;;;;;0.90;0.90;;;;;;;24.60;36.55;98859.31;1866576;76;28101;-47
2023/01/15 22:17:23;;;;;;;0.90;0.90;;;;;;;24.58;36.51;98859.59;1852179;76;28274;-47
2023/01/15 22:20:19;;;;;;;1.07;1.07;;;;;;;24.63;36.55;98858.26;1861338;75;28236;-46
2023/01/15 22:23:14;;;;;;;1.23;1.13;;;;;;;24.57;36.95;98849.71;1840174;76;28792;-46
2023/01/15 22:26:05;;;;;;;1.10;1.10;;;;;;;24.57;36.95;98849.71;1856633;76;28287;-48
2023/01/15 22:28:53;;;;;;;2.67;1.20;;;;;;;24.55;36.90;98843.63;1801439;77;28368;-49
2023/01/15 22:31:42;;;;;;;1.10;1.10;;;;;;;24.53;37.12;98844.98;1806235;77;28275;-48
2023/01/15 22:34:31;;;;;;;0.90;0.90;;;;;;;24.50;37.20;98840.88;1834535;76;28354;-49
2023/01/15 22:37:20;;;;;;;1.25;1.15;;;;;;;24.49;37.44;98841.11;1830426;76;28191;-46
2023/01/15 22:40:10;;;;;;;1.12;1.10;;;;;;;24.47;37.49;98824.91;1823140;77;28436;-46
2023/01/15 22:42:58;;;;;;;1.10;1.07;;;;;;;24.46;37.52;98813.63;1819691;76;28322;-45
2023/01/15 22:45:46;;;;;;;1.57;1.23;;;;;;;24.44;37.58;98813.61;1835473;77;28285;-47
2023/01/15 22:48:35;;;;;;;1.30;1.20;;;;;;;24.42;37.88;98806.19;1861816;76;28187;-46
2023/01/15 22:51:23;;;;;;;1.80;1.27;;;;;;;24.43;37.86;98806.48;1859919;76;28261;-44
2023/01/15 22:54:12;;;;;;;1.03;1.03;;;;;;;24.40;37.98;98802.34;1854780;76;28119;-47
2023/01/15 22:57:00;;;;;;;1.40;1.25;;;;;;;24.38;38.43;98799.04;1829247;76;28580;-47
2023/01/15 22:59:52;;;;;;;1.30;1.20;;;;;;;24.37;38.21;98792.42;1830432;76;28257;-46
2023/01/15 23:03:03;;;;;;;1.17;1.07;;;;;;;24.36;38.26;98772.94;1834604;76;28141;-49
2023/01/15 23:05:45;;;;;;;2.95;1.40;;;;;;;24.37;38.37;98771.83;1854937;76;28115;-45
2023/01/15 23:08:35;;;;;;;1.80;1.22;;;;;;;24.31;38.62;98770.16;1828080;76;28331;-46
2023/01/15 23:11:23;;;;;;;1.87;1.30;;;;;;;24.29;38.66;98776.45;1834653;76;28173;-46
2023/01/15 23:14:17;;;;;;;2.08;1.10;;;;;;;24.32;38.66;98780.05;1848679;76;28250;-46
2023/01/15 23:17:05;;;;;;;1.40;1.10;;;;;;;24.33;38.68;98763.85;1846159;76;28111;-47
2023/01/15 23:19:53;;;;;;;1.12;1.10;;;;;;;24.34;38.65;98755.34;1832309;76;28276;-46
2023/01/15 23:22:42;;;;;;;1.02;1.02;;;;;;;24.33;38.72;98750.95;1808185;78;28409;-44
2023/01/15 23:25:30;;;;;;;1.00;1.00;;;;;;;24.33;38.69;98746.84;1833164;77;28343;-47
2023/01/15 23:28:26;;;;;;;1.20;1.10;;;;;;;24.29;38.85;98738.86;1840445;77;28559;-44
2023/01/15 23:31:14;;;;;;;1.20;1.20;;;;;;;24.16;39.03;98738.46;1845889;76;28224;-45
2023/01/15 23:34:10;;;;;;;1.10;1.10;;;;;;;24.10;39.29;98730.75;1827434;77;28260;-44
2023/01/15 23:37:04;;;;;;;1.02;0.98;;;;;;;24.11;39.41;98728.28;1842469;77;30303;-43
2023/01/15 23:39:53;;;;;;;1.40;1.30;;;;;;;24.04;39.36;98718.03;1859510;76;28137;-42
2023/01/15 23:49:08;;;;;;;1.12;1.12;;;;;;;23.80;39.79;98711.27;1834683;76;28437;-44
2023/01/15 23:52:03;;;;;;;1.00;1.00;;;;;;;23.78;39.94;98697.00;1832667;76;28348;-44
2023/01/15 23:54:51;;;;;;;1.40;1.30;;;;;;;23.70;40.10;98679.64;1837338;76;28254;-43
2023/01/15 23:57:47;;;;;;;1.40;1.30;;;;;;;23.69;40.17;98680.72;1824423;76;28720;-47
